createdAt,value
2023-03-12T00:01:55.942Z,79.16
2023-03-12T00:04:22.440Z,79.01
2023-03-12T00:06:48.844Z,79.30
2023-03-12T00:09:15.568Z,79.30
2023-03-12T00:11:41.919Z,78.76
2023-03-12T00:14:08.307Z,78.59
2023-03-12T00:16:34.710Z,78.92
2023-03-12T00:19:01.082Z,79.18
2023-03-12T00:21:27.443Z,79.15
2023-03-12T00:23:55.941Z,79.40
2023-03-12T00:26:22.324Z,79.13
2023-03-12T00:28:48.721Z,79.12
2023-03-12T00:31:15.078Z,79.09
2023-03-12T00:33:41.414Z,78.97
2023-03-12T00:36:07.865Z,79.33
2023-03-12T00:38:34.252Z,79.12
2023-03-12T00:41:00.894Z,79.23
2023-03-12T00:43:27.533Z,79.28
2023-03-12T00:45:53.901Z,79.30
2023-03-12T00:48:20.250Z,78.63
2023-03-12T00:50:46.597Z,78.98
2023-03-12T00:53:12.977Z,79.08
2023-03-12T00:55:39.329Z,78.66
2023-03-12T00:58:05.705Z,78.24
2023-03-12T01:00:32.157Z,78.90
2023-03-12T01:02:58.566Z,78.72
2023-03-12T01:05:24.918Z,78.68
2023-03-12T01:07:51.298Z,78.84
2023-03-12T01:10:17.648Z,79.23
2023-03-12T01:12:43.997Z,79.22
2023-03-12T01:15:10.463Z,79.42
2023-03-12T01:17:36.913Z,79.66
2023-03-12T01:20:03.293Z,79.80
2023-03-12T01:22:29.683Z,79.64
2023-03-12T01:24:56.082Z,79.98
2023-03-12T01:27:22.558Z,80.13
2023-03-12T01:29:48.919Z,79.66
2023-03-12T01:32:15.312Z,79.75
2023-03-12T01:34:42.702Z,79.22
2023-03-12T01:37:09.094Z,79.75
2023-03-12T01:39:35.457Z,80.14
2023-03-12T01:42:01.786Z,79.87
2023-03-12T01:44:28.126Z,79.88
2023-03-12T01:46:54.502Z,80.14
2023-03-12T01:49:20.868Z,79.61
2023-03-12T01:51:47.263Z,79.56
2023-03-12T01:54:13.670Z,79.95
2023-03-12T01:56:40.216Z,79.73
2023-03-12T01:59:06.624Z,79.78
2023-03-12T02:01:33.082Z,79.44
2023-03-12T02:03:59.521Z,79.84
2023-03-12T02:06:25.942Z,80.18
2023-03-12T02:08:52.433Z,80.27
2023-03-12T02:11:18.831Z,80.21
2023-03-12T02:13:45.259Z,80.00
2023-03-12T02:16:11.753Z,80.37
2023-03-12T02:18:38.225Z,80.20
2023-03-12T02:21:04.607Z,80.73
2023-03-12T02:23:30.951Z,80.98
2023-03-12T02:25:57.408Z,81.04
2023-03-12T02:28:23.785Z,81.60
2023-03-12T02:30:50.175Z,84.13
2023-03-12T02:33:16.615Z,83.42
2023-03-12T02:35:42.966Z,82.51
2023-03-12T02:38:09.361Z,81.79
2023-03-12T02:40:35.740Z,81.57
2023-03-12T02:43:02.180Z,81.02
2023-03-12T02:45:28.788Z,80.37
2023-03-12T02:47:55.232Z,80.20
2023-03-12T02:50:21.628Z,79.60
2023-03-12T02:52:47.975Z,79.14
2023-03-12T02:55:14.340Z,78.60
2023-03-12T02:57:40.736Z,77.59
2023-03-12T03:00:07.079Z,76.47
2023-03-12T03:02:33.418Z,75.98
2023-03-12T03:04:59.739Z,75.00
2023-03-12T03:07:26.202Z,72.74
2023-03-12T03:09:52.562Z,72.86
2023-03-12T03:12:19.978Z,73.52
2023-03-12T03:14:46.382Z,73.19
2023-03-12T03:17:12.769Z,73.84
2023-03-12T03:19:39.178Z,72.31
2023-03-12T03:22:05.570Z,72.63
2023-03-12T03:24:32.193Z,73.43
2023-03-12T03:27:00.717Z,74.54
2023-03-12T03:29:27.112Z,74.57
2023-03-12T03:31:53.723Z,74.54
2023-03-12T03:34:20.616Z,75.43
2023-03-12T03:36:47.316Z,75.04
2023-03-12T03:39:13.863Z,75.66
2023-03-12T03:41:40.235Z,76.44
2023-03-12T03:44:08.082Z,76.35
2023-03-12T03:46:34.528Z,77.49
2023-03-12T03:49:00.989Z,77.86
2023-03-12T03:51:27.372Z,77.57
2023-03-12T03:53:53.777Z,77.41
2023-03-12T03:56:20.157Z,77.04
2023-03-12T03:58:47.729Z,77.10
2023-03-12T04:01:14.106Z,77.82
2023-03-12T04:03:40.547Z,77.37
2023-03-12T04:06:07.125Z,78.12
2023-03-12T04:08:33.455Z,78.12
2023-03-12T04:10:59.825Z,77.76
2023-03-12T04:13:26.163Z,78.41
2023-03-12T04:15:52.508Z,78.81
2023-03-12T04:18:18.950Z,78.87
2023-03-12T04:20:45.395Z,79.00
2023-03-12T04:23:13.850Z,78.37
2023-03-12T04:25:40.192Z,78.67
2023-03-12T04:28:06.638Z,78.68
2023-03-12T04:30:33.128Z,78.12
2023-03-12T04:33:01.780Z,77.94
2023-03-12T04:35:28.167Z,78.25
2023-03-12T04:37:54.533Z,79.34
2023-03-12T04:40:20.870Z,80.12
2023-03-12T04:42:47.251Z,80.17
2023-03-12T04:45:13.624Z,80.49
2023-03-12T04:47:39.973Z,80.66
2023-03-12T04:50:06.342Z,80.40
2023-03-12T04:52:32.708Z,80.13
2023-03-12T04:54:59.075Z,80.43
2023-03-12T04:57:25.461Z,80.12
2023-03-12T04:59:51.839Z,80.00
2023-03-12T05:02:18.312Z,80.03
2023-03-12T05:04:44.701Z,80.36
2023-03-12T05:07:11.029Z,79.91
2023-03-12T05:09:37.370Z,79.85
2023-03-12T05:12:03.729Z,79.81
2023-03-12T05:14:30.272Z,80.26
2023-03-12T05:16:58.138Z,80.58
2023-03-12T05:19:24.516Z,80.74
2023-03-12T05:21:50.871Z,80.72
2023-03-12T05:24:17.205Z,80.91
2023-03-12T05:26:43.587Z,80.69
2023-03-12T05:29:10.179Z,80.54
2023-03-12T05:31:36.596Z,80.21
2023-03-12T05:34:03.023Z,79.51
2023-03-12T05:36:29.369Z,79.47
2023-03-12T05:38:55.773Z,79.47
2023-03-12T05:41:22.159Z,79.98
2023-03-12T05:43:48.496Z,80.38
2023-03-12T05:46:14.972Z,80.34
2023-03-12T05:48:41.383Z,80.05
2023-03-12T05:51:07.916Z,80.05
2023-03-12T05:53:34.467Z,78.43
2023-03-12T05:56:00.801Z,77.46
2023-03-12T05:58:27.897Z,78.18
2023-03-12T06:00:54.289Z,77.24
2023-03-12T06:03:20.820Z,77.61
2023-03-12T06:05:47.242Z,77.25
2023-03-12T06:08:13.686Z,77.11
2023-03-12T06:10:40.085Z,76.15
2023-03-12T06:13:06.455Z,76.37
2023-03-12T06:15:32.817Z,76.56
2023-03-12T06:17:59.159Z,75.79
2023-03-12T06:20:25.535Z,75.28
2023-03-12T06:22:52.025Z,75.11
2023-03-12T06:25:18.366Z,75.69
2023-03-12T06:27:44.736Z,75.27
2023-03-12T06:30:12.300Z,75.75
2023-03-12T06:32:38.866Z,75.43
2023-03-12T06:35:05.376Z,75.22
2023-03-12T06:37:31.822Z,74.35
2023-03-12T06:39:58.267Z,74.00
2023-03-12T06:42:24.955Z,74.40
2023-03-12T06:44:51.343Z,74.72
2023-03-12T06:47:17.910Z,75.04
2023-03-12T06:49:44.584Z,74.84
2023-03-12T06:52:10.931Z,75.25
2023-03-12T06:54:37.302Z,75.11
2023-03-12T06:57:03.784Z,76.30
2023-03-12T06:59:30.522Z,76.57
2023-03-12T07:01:56.912Z,76.85
2023-03-12T07:04:23.393Z,76.24
2023-03-12T07:06:49.793Z,76.67
2023-03-12T07:09:16.137Z,76.49
2023-03-12T07:11:42.635Z,77.55
2023-03-12T07:14:09.276Z,78.47
2023-03-12T07:16:35.917Z,78.27
2023-03-12T07:19:02.432Z,78.09
2023-03-12T07:21:31.062Z,78.96
2023-03-12T07:23:57.414Z,78.28
2023-03-12T07:26:25.437Z,77.77
2023-03-12T07:28:51.796Z,77.17
2023-03-12T07:31:18.246Z,77.42
2023-03-12T07:33:44.748Z,77.56
2023-03-12T07:36:11.381Z,78.12
2023-03-12T07:38:37.875Z,77.03
2023-03-12T07:41:04.269Z,77.58
2023-03-12T07:43:30.716Z,77.36
2023-03-12T07:45:57.083Z,76.60
2023-03-12T07:48:23.589Z,76.64
2023-03-12T07:50:50.395Z,76.94
2023-03-12T07:53:17.125Z,76.93
2023-03-12T07:55:43.564Z,76.67
2023-03-12T07:58:10.221Z,76.14
2023-03-12T08:00:36.853Z,76.19
2023-03-12T08:03:03.521Z,76.00
2023-03-12T08:05:30.194Z,75.74
2023-03-12T08:07:56.641Z,74.94
2023-03-12T08:10:23.082Z,76.03
2023-03-12T08:12:49.609Z,75.39
2023-03-12T08:15:15.987Z,74.91
2023-03-12T08:17:42.356Z,74.68
2023-03-12T08:20:08.733Z,74.43
2023-03-12T08:22:35.173Z,73.56
2023-03-12T08:25:01.557Z,73.52
2023-03-12T08:27:28.004Z,74.31
2023-03-12T08:29:54.499Z,73.97
2023-03-12T08:32:20.999Z,73.98
2023-03-12T08:34:47.413Z,73.34
2023-03-12T08:37:13.741Z,72.83
2023-03-12T08:39:42.351Z,73.75
2023-03-12T08:42:08.685Z,73.44
2023-03-12T08:44:35.079Z,73.46
2023-03-12T08:47:01.477Z,72.67
2023-03-12T08:49:27.859Z,72.28
2023-03-12T08:51:54.245Z,71.96
2023-03-12T08:54:20.928Z,71.93
2023-03-12T08:56:47.271Z,71.93
2023-03-12T08:59:14.338Z,70.69
2023-03-12T09:01:43.540Z,71.60
2023-03-12T09:04:10.249Z,70.95
2023-03-12T09:06:36.614Z,71.42
2023-03-12T09:09:02.950Z,71.63
2023-03-12T09:11:31.492Z,72.57
2023-03-12T09:14:33.361Z,71.65
2023-03-12T09:16:44.329Z,71.50
2023-03-12T09:19:10.748Z,71.74
2023-03-12T09:21:37.089Z,69.65
2023-03-12T09:24:03.452Z,71.15
2023-03-12T09:26:29.919Z,69.73
2023-03-12T09:28:56.262Z,70.18
2023-03-12T09:31:22.717Z,70.25
2023-03-12T09:33:49.130Z,70.54
2023-03-12T09:36:15.517Z,69.05
2023-03-12T09:38:41.948Z,69.65
2023-03-12T09:41:08.327Z,68.89
2023-03-12T09:43:34.885Z,69.03
2023-03-12T09:46:01.275Z,69.62
2023-03-12T09:48:27.691Z,69.37
2023-03-12T09:50:54.269Z,68.42
2023-03-12T09:53:20.826Z,68.41
2023-03-12T09:55:47.513Z,68.58
2023-03-12T09:58:13.842Z,67.87
2023-03-12T10:00:40.817Z,68.47
2023-03-12T10:03:07.376Z,68.86
2023-03-12T10:05:34.028Z,69.84
2023-03-12T10:08:07.578Z,70.35
2023-03-12T10:10:40.497Z,69.28
2023-03-12T10:13:07.840Z,68.20
2023-03-12T10:15:34.194Z,69.12
2023-03-12T10:18:00.641Z,68.32
2023-03-12T10:20:27.345Z,68.17
2023-03-12T10:22:53.750Z,67.88
2023-03-12T10:25:22.138Z,66.98
2023-03-12T10:27:48.469Z,66.37
2023-03-12T10:30:15.253Z,65.32
2023-03-12T10:32:41.697Z,66.03
2023-03-12T10:35:08.281Z,66.39
2023-03-12T10:37:39.916Z,65.43
2023-03-12T10:40:08.287Z,65.31
2023-03-12T10:42:34.738Z,65.57
2023-03-12T10:45:01.082Z,64.66
2023-03-12T10:47:27.474Z,64.17
2023-03-12T10:49:54.122Z,64.74
2023-03-12T10:52:20.478Z,64.04
2023-03-12T10:54:46.862Z,63.82
2023-03-12T10:57:13.505Z,64.91
2023-03-12T10:59:43.591Z,64.02
2023-03-12T11:02:10.060Z,63.31
2023-03-12T11:04:36.450Z,63.82
2023-03-12T11:07:03.839Z,63.35
2023-03-12T11:09:30.323Z,62.69
2023-03-12T11:11:57.201Z,63.01
2023-03-12T11:14:24.833Z,62.25
2023-03-12T11:16:51.193Z,62.10
2023-03-12T11:19:17.540Z,61.88
2023-03-12T11:21:43.862Z,62.19
2023-03-12T11:24:10.425Z,61.43
2023-03-12T11:26:36.769Z,61.95
2023-03-12T11:29:03.136Z,62.26
2023-03-12T11:31:29.625Z,60.46
2023-03-12T11:33:57.437Z,59.96
2023-03-12T11:36:23.930Z,60.04
2023-03-12T11:38:50.265Z,58.51
2023-03-12T11:41:16.638Z,60.49
2023-03-12T11:43:44.295Z,60.48
2023-03-12T11:46:10.843Z,58.85
2023-03-12T11:48:37.272Z,58.76
2023-03-12T11:51:03.745Z,59.78
2023-03-12T11:53:31.147Z,59.78
2023-03-12T11:55:57.609Z,58.49
2023-03-12T11:58:24.063Z,60.32
2023-03-12T12:00:50.511Z,62.03
2023-03-12T12:03:16.892Z,61.37
2023-03-12T12:05:43.303Z,61.57
2023-03-12T12:08:09.710Z,61.33
2023-03-12T12:10:36.058Z,60.79
2023-03-12T12:13:02.386Z,60.27
2023-03-12T12:15:28.874Z,60.88
2023-03-12T12:17:55.266Z,60.40
2023-03-12T12:20:21.609Z,61.10
2023-03-12T12:22:48.000Z,57.46
2023-03-12T12:25:14.469Z,58.98
2023-03-12T12:27:40.977Z,56.95
2023-03-12T12:30:07.345Z,54.73
2023-03-12T12:32:34.689Z,55.03
2023-03-12T12:35:01.175Z,54.45
2023-03-12T12:37:30.027Z,56.05
2023-03-12T12:39:57.452Z,54.70
2023-03-12T12:42:23.908Z,55.07
2023-03-12T12:44:50.287Z,56.61
2023-03-12T12:47:16.701Z,55.41
2023-03-12T12:49:43.082Z,55.27
2023-03-12T12:52:09.462Z,54.99
2023-03-12T12:54:36.143Z,54.12
2023-03-12T12:57:02.628Z,54.43
2023-03-12T12:59:29.209Z,52.31
2023-03-12T13:01:55.603Z,53.86
2023-03-12T13:04:22.106Z,54.65
2023-03-12T13:06:49.242Z,53.69
2023-03-12T13:09:15.622Z,53.52
2023-03-12T13:11:42.116Z,53.61
2023-03-12T13:14:08.491Z,53.81
2023-03-12T13:16:34.897Z,53.98
2023-03-12T13:19:01.286Z,53.64
2023-03-12T13:21:27.842Z,55.88
2023-03-12T13:23:54.447Z,56.76
2023-03-12T13:26:21.805Z,54.84
2023-03-12T13:28:50.448Z,56.62
2023-03-12T13:31:18.238Z,56.53
2023-03-12T13:33:45.197Z,57.01
2023-03-12T13:36:11.782Z,56.08
2023-03-12T13:38:38.270Z,55.87
2023-03-12T13:41:04.661Z,56.60
2023-03-12T13:43:31.863Z,55.30
2023-03-12T13:45:58.261Z,54.31
2023-03-12T13:48:24.831Z,51.66
2023-03-12T13:50:51.320Z,52.02
2023-03-12T13:53:17.654Z,52.79
2023-03-12T13:55:44.140Z,51.97
2023-03-12T13:58:10.494Z,52.08
2023-03-12T14:00:36.981Z,53.21
2023-03-12T14:03:03.363Z,52.39
2023-03-12T14:05:29.712Z,52.38
2023-03-12T14:07:56.091Z,51.16
2023-03-12T14:10:22.499Z,50.30
2023-03-12T14:12:48.990Z,50.97
2023-03-12T14:15:15.366Z,51.21
2023-03-12T14:17:42.005Z,51.51
2023-03-12T14:20:08.357Z,50.94
2023-03-12T14:22:34.734Z,51.67
2023-03-12T14:25:01.069Z,51.73
2023-03-12T14:27:27.447Z,51.63
2023-03-12T14:29:53.909Z,49.99
2023-03-12T14:32:20.316Z,50.92
2023-03-12T14:34:46.714Z,51.08
2023-03-12T14:37:13.052Z,51.94
2023-03-12T14:39:39.423Z,51.27
2023-03-12T14:42:05.806Z,50.80
2023-03-12T14:44:32.151Z,50.71
2023-03-12T14:46:58.585Z,50.54
2023-03-12T14:49:25.071Z,50.78
2023-03-12T14:51:51.694Z,50.20
2023-03-12T14:54:18.165Z,50.75
2023-03-12T14:56:44.580Z,50.31
2023-03-12T14:59:11.186Z,50.43
2023-03-12T15:01:37.770Z,51.96
2023-03-12T15:04:04.232Z,51.35
2023-03-12T15:06:30.608Z,51.33
2023-03-12T15:08:57.016Z,50.85
2023-03-12T15:11:23.618Z,52.40
2023-03-12T15:13:50.030Z,51.40
2023-03-12T15:16:16.503Z,52.39
2023-03-12T15:18:42.909Z,51.00
2023-03-12T15:21:09.364Z,51.38
2023-03-12T15:23:35.988Z,51.74
2023-03-12T15:26:02.359Z,52.07
2023-03-12T15:28:28.709Z,52.27
2023-03-12T15:30:55.083Z,51.18
2023-03-12T15:33:21.460Z,51.68
2023-03-12T15:35:47.961Z,51.97
2023-03-12T15:38:14.492Z,51.58
2023-03-12T15:40:40.928Z,51.33
2023-03-12T15:43:07.593Z,52.39
2023-03-12T15:45:34.113Z,51.37
2023-03-12T15:48:00.498Z,52.21
2023-03-12T15:50:26.879Z,51.78
2023-03-12T15:52:53.248Z,51.16
2023-03-12T15:55:19.606Z,51.79
2023-03-12T15:57:45.960Z,52.13
2023-03-12T16:00:12.363Z,52.51
2023-03-12T16:02:38.967Z,51.27
2023-03-12T16:05:08.057Z,52.12
2023-03-12T16:07:34.574Z,52.20
2023-03-12T16:10:01.027Z,51.07
2023-03-12T16:12:27.357Z,51.46
2023-03-12T16:14:55.774Z,51.49
2023-03-12T16:17:22.216Z,52.54
2023-03-12T16:19:50.607Z,52.11
2023-03-12T16:22:16.937Z,51.52
2023-03-12T16:24:45.814Z,51.46
2023-03-12T16:27:14.025Z,51.84
2023-03-12T16:29:42.322Z,51.62
2023-03-12T16:32:08.757Z,52.82
2023-03-12T16:34:35.238Z,53.02
2023-03-12T16:37:01.717Z,52.46
2023-03-12T16:39:30.437Z,52.38
2023-03-12T16:41:56.883Z,52.57
2023-03-12T16:44:23.261Z,53.66
2023-03-12T16:46:49.694Z,54.04
2023-03-12T16:49:16.187Z,54.09
2023-03-12T16:51:42.571Z,54.41
2023-03-12T16:54:11.819Z,54.05
2023-03-12T16:56:38.686Z,54.49
2023-03-12T16:59:05.066Z,54.60
2023-03-12T17:01:31.528Z,54.75
2023-03-12T17:03:57.939Z,55.65
2023-03-12T17:06:24.342Z,55.96
2023-03-12T17:08:50.791Z,54.89
2023-03-12T17:11:17.181Z,54.78
2023-03-12T17:13:43.522Z,54.67
2023-03-12T17:16:10.064Z,55.33
2023-03-12T17:18:39.567Z,55.67
2023-03-12T17:21:06.240Z,55.64
2023-03-12T17:23:32.847Z,56.18
2023-03-12T17:25:59.293Z,56.13
2023-03-12T17:28:25.691Z,55.61
2023-03-12T17:30:52.098Z,56.13
2023-03-12T17:33:18.477Z,56.25
2023-03-12T17:35:44.899Z,56.81
2023-03-12T17:38:11.315Z,57.00
2023-03-12T17:40:37.655Z,57.31
2023-03-12T17:43:04.260Z,56.75
2023-03-12T17:45:30.898Z,57.23
2023-03-12T17:47:57.342Z,57.28
2023-03-12T17:50:26.141Z,57.16
2023-03-12T17:52:52.527Z,57.49
2023-03-12T17:55:18.895Z,57.55
2023-03-12T17:57:47.753Z,57.84
2023-03-12T18:00:14.348Z,59.05
2023-03-12T18:02:40.731Z,59.18
2023-03-12T18:05:07.107Z,58.98
2023-03-12T18:07:33.512Z,59.22
2023-03-12T18:09:59.865Z,59.64
2023-03-12T18:12:26.233Z,59.97
2023-03-12T18:14:52.627Z,59.59
2023-03-12T18:17:18.980Z,60.31
2023-03-12T18:19:45.358Z,60.02
2023-03-12T18:22:11.762Z,59.37
2023-03-12T18:24:38.136Z,59.43
2023-03-12T18:27:04.472Z,59.30
2023-03-12T18:29:30.868Z,59.64
2023-03-12T18:31:57.210Z,59.76
2023-03-12T18:34:23.658Z,59.41
2023-03-12T18:36:50.101Z,59.34
2023-03-12T18:39:16.566Z,59.58
2023-03-12T18:41:43.290Z,59.51
2023-03-12T18:44:14.357Z,60.76
2023-03-12T18:46:41.739Z,61.34
2023-03-12T18:49:08.359Z,62.37
2023-03-12T18:51:34.700Z,63.12
2023-03-12T18:54:01.059Z,63.72
2023-03-12T18:56:27.410Z,63.74
2023-03-12T18:58:53.775Z,63.98
2023-03-12T19:01:20.519Z,63.78
2023-03-12T19:03:48.637Z,64.50
2023-03-12T19:06:15.029Z,64.17
2023-03-12T19:08:41.451Z,64.44
2023-03-12T19:11:07.817Z,65.42
2023-03-12T19:13:34.164Z,66.12
2023-03-12T19:16:00.668Z,66.21
2023-03-12T19:18:27.103Z,65.98
2023-03-12T19:20:53.554Z,66.28
2023-03-12T19:23:19.950Z,66.17
2023-03-12T19:25:46.464Z,65.95
2023-03-12T19:28:13.024Z,66.95
2023-03-12T19:30:39.385Z,67.54
2023-03-12T19:33:05.858Z,67.79
2023-03-12T19:35:32.388Z,68.28
2023-03-12T19:37:58.808Z,68.43
2023-03-12T19:40:25.209Z,68.52
2023-03-12T19:42:51.558Z,68.45
2023-03-12T19:45:17.921Z,68.76
2023-03-12T19:47:44.384Z,68.76
2023-03-12T19:50:10.755Z,68.67
2023-03-12T19:52:37.094Z,68.87
2023-03-12T19:55:05.437Z,68.30
2023-03-12T19:57:32.049Z,68.82
2023-03-12T20:00:00.455Z,68.24
2023-03-12T20:02:27.042Z,68.55
2023-03-12T20:04:53.489Z,68.45
2023-03-12T20:07:20.070Z,68.17
2023-03-12T20:09:46.719Z,68.38
2023-03-12T20:12:14.300Z,68.29
2023-03-12T20:14:42.828Z,68.16
2023-03-12T20:17:09.579Z,68.73
2023-03-12T20:19:35.968Z,68.30
2023-03-12T20:22:02.420Z,68.54
2023-03-12T20:24:28.840Z,69.27
2023-03-12T20:26:55.198Z,69.87
2023-03-12T20:29:21.579Z,69.94
2023-03-12T20:31:47.958Z,69.71
2023-03-12T20:34:14.353Z,70.19
2023-03-12T20:36:40.766Z,70.40
2023-03-12T20:39:07.163Z,70.21
2023-03-12T20:41:33.606Z,70.02
2023-03-12T20:43:59.930Z,70.29
2023-03-12T20:46:26.340Z,70.16
2023-03-12T20:48:54.018Z,70.40
2023-03-12T20:51:21.392Z,69.94
2023-03-12T20:53:47.797Z,69.65
2023-03-12T20:56:14.192Z,69.75
2023-03-12T20:58:40.542Z,68.94
2023-03-12T21:01:06.942Z,69.44
2023-03-12T21:03:33.364Z,69.42
2023-03-12T21:05:59.743Z,69.37
2023-03-12T21:08:26.092Z,69.59
2023-03-12T21:10:52.437Z,68.47
2023-03-12T21:13:18.933Z,68.09
2023-03-12T21:15:45.304Z,68.13
2023-03-12T21:18:11.709Z,68.12
2023-03-12T21:20:38.274Z,67.78
2023-03-12T21:23:04.666Z,67.43
2023-03-12T21:25:31.551Z,67.81
2023-03-12T21:27:58.287Z,67.31
2023-03-12T21:30:25.136Z,67.15
2023-03-12T21:32:51.775Z,67.42
2023-03-12T21:35:18.176Z,67.49
2023-03-12T21:37:45.709Z,67.39
2023-03-12T21:40:12.053Z,67.00
2023-03-12T21:42:38.380Z,67.48
2023-03-12T21:45:04.804Z,66.70
2023-03-12T21:47:31.236Z,67.33
2023-03-12T21:50:00.424Z,67.61
2023-03-12T21:52:27.059Z,67.56
2023-03-12T21:54:53.395Z,67.45
2023-03-12T21:57:19.905Z,67.94
2023-03-12T21:59:46.816Z,67.80
2023-03-12T22:02:13.525Z,67.57
2023-03-12T22:04:39.970Z,67.97
2023-03-12T22:07:06.399Z,67.79
2023-03-12T22:09:32.952Z,68.30
2023-03-12T22:11:59.572Z,67.27
2023-03-12T22:14:26.077Z,67.65
2023-03-12T22:16:52.487Z,67.23
2023-03-12T22:19:18.854Z,67.02
2023-03-12T22:21:45.301Z,66.82
2023-03-12T22:24:12.161Z,66.36
2023-03-12T22:26:38.528Z,67.05
2023-03-12T22:29:04.913Z,67.89
2023-03-12T22:31:31.323Z,68.46
2023-03-12T22:34:01.140Z,67.53
2023-03-12T22:36:27.906Z,68.02
2023-03-12T22:38:56.539Z,67.62
2023-03-12T22:41:22.877Z,68.64
2023-03-12T22:43:49.263Z,69.23
2023-03-12T22:46:15.759Z,68.40
2023-03-12T22:48:43.176Z,68.87
2023-03-12T22:51:09.646Z,68.11
2023-03-12T22:53:36.100Z,67.49
2023-03-12T22:56:03.480Z,67.67
2023-03-12T22:58:30.143Z,66.96
2023-03-12T23:00:56.589Z,66.85
2023-03-12T23:03:25.360Z,67.14
2023-03-12T23:05:51.759Z,66.17
2023-03-12T23:08:19.139Z,66.80
2023-03-12T23:10:45.903Z,66.46
2023-03-12T23:13:12.324Z,66.38
2023-03-12T23:15:41.475Z,66.18
2023-03-12T23:18:08.281Z,66.14
2023-03-12T23:20:34.689Z,65.93
2023-03-12T23:23:01.026Z,65.72
2023-03-12T23:25:27.373Z,65.52
2023-03-12T23:27:53.832Z,64.73
2023-03-12T23:30:20.211Z,64.97
2023-03-12T23:32:49.861Z,64.98
2023-03-12T23:35:16.864Z,65.31
2023-03-12T23:37:43.682Z,65.45
2023-03-12T23:40:12.445Z,65.11
2023-03-12T23:42:38.830Z,64.30
2023-03-12T23:45:05.331Z,64.96
2023-03-12T23:47:31.684Z,65.05
2023-03-12T23:49:58.063Z,65.90
2023-03-12T23:52:24.409Z,66.63
2023-03-12T23:54:50.784Z,66.42
2023-03-12T23:57:17.224Z,66.15
2023-03-12T23:59:44.569Z,65.60
